TimeMST,TemperatureF,Dew PointF,Humidity,Sea Level PressureIn,VisibilityMPH,Wind Direction,Wind SpeedMPH,Gust SpeedMPH,PrecipitationIn,Events,Conditions,WindDirDegrees,DateUTC
12:53 AM,8.6,3.2,79,29.90,10.0,Calm,Calm,-,N/A,,Overcast,0,2013-01-15 07:53:00
1:30 AM,8.6,3.2,79,29.90,10.0,Calm,Calm,-,N/A,,Overcast,0,2013-01-15 08:30:00
2:02 AM,8.6,5.0,85,29.89,10.0,Calm,Calm,-,N/A,,Overcast,0,2013-01-15 09:02:00
2:53 AM,10.9,6.1,81,30.00,10.0,WSW,5.8,-,N/A,,Overcast,250,2013-01-15 09:53:00
3:06 AM,12.2,6.8,79,29.87,10.0,West,5.8,-,N/A,,Overcast,260,2013-01-15 10:06:00
3:43 AM,12.2,8.6,85,29.86,10.0,WSW,4.6,-,N/A,,Overcast,250,2013-01-15 10:43:00
3:53 AM,14.0,9.0,80,29.99,10.0,WSW,3.5,-,N/A,,Overcast,250,2013-01-15 10:53:00
4:28 AM,15.8,10.4,79,29.86,10.0,WSW,4.6,-,N/A,,Overcast,240,2013-01-15 11:28:00
4:53 AM,15.1,10.9,84,29.97,10.0,SSW,3.5,-,N/A,,Overcast,210,2013-01-15 11:53:00
5:09 AM,17.6,12.2,79,29.84,10.0,WSW,9.2,-,N/A,,Overcast,240,2013-01-15 12:09:00
5:24 AM,17.6,14.0,86,29.84,10.0,SW,8.1,-,N/A,,Overcast,230,2013-01-15 12:24:00
5:53 AM,21.0,17.1,85,29.96,10.0,WSW,10.4,-,N/A,,Overcast,240,2013-01-15 12:53:00
6:01 AM,21.2,17.6,86,29.83,10.0,SW,9.2,-,N/A,,Overcast,230,2013-01-15 13:01:00
6:38 AM,24.8,21.2,86,29.82,10.0,WSW,6.9,-,N/A,,Overcast,250,2013-01-15 13:38:00
6:53 AM,23.0,19.9,88,29.94,10.0,WSW,8.1,-,N/A,,Overcast,240,2013-01-15 13:53:00
7:53 AM,27.0,24.1,89,29.93,9.0,West,12.7,-,N/A,,Overcast,260,2013-01-15 14:53:00
8:50 AM,28.4,26.6,93,29.82,10.0,West,11.5,-,N/A,,Overcast,260,2013-01-15 15:50:00
8:53 AM,28.0,26.1,92,29.93,10.0,West,10.4,-,N/A,,Overcast,260,2013-01-15 15:53:00
9:53 AM,32.0,28.0,85,29.92,9.0,West,12.7,-,0.00,,Overcast,270,2013-01-15 16:53:00
10:25 AM,33.8,30.2,87,29.81,2.5,West,12.7,-,0.00,Snow,Light Snow,270,2013-01-15 17:25:00
10:33 AM,33.8,30.2,87,29.81,4.0,West,16.1,-,0.00,Snow,Light Snow,260,2013-01-15 17:33:00
10:41 AM,33.8,30.2,87,29.80,3.0,West,15.0,-,0.00,Snow,Light Snow,260,2013-01-15 17:41:00
10:53 AM,33.1,30.0,89,29.90,3.0,West,15.0,-,0.00,Snow,Light Snow,260,2013-01-15 17:53:00
11:06 AM,33.8,30.2,87,29.80,4.0,West,17.3,-,0.00,Snow,Light Snow,260,2013-01-15 18:06:00
11:49 AM,33.8,30.2,87,29.78,10.0,West,16.1,-,0.00,Rain,Light Rain,260,2013-01-15 18:49:00
11:53 AM,34.0,30.9,89,29.87,10.0,West,17.3,-,0.00,Rain,Light Rain,260,2013-01-15 18:53:00
12:17 PM,35.6,30.2,81,29.76,10.0,West,17.3,-,N/A,,Overcast,270,2013-01-15 19:17:00
12:53 PM,36.0,28.9,76,29.85,10.0,West,21.9,-,0.00,,Overcast,270,2013-01-15 19:53:00
1:53 PM,36.0,28.9,76,29.85,10.0,West,20.7,28.8,N/A,,Overcast,270,2013-01-15 20:53:00
2:53 PM,36.0,28.9,76,29.84,10.0,West,20.7,28.8,N/A,,Scattered Clouds,260,2013-01-15 21:53:00
3:53 PM,37.0,28.9,73,29.85,10.0,West,24.2,31.1,N/A,,Partly Cloudy,260,2013-01-15 22:53:00
4:53 PM,37.0,30.0,76,29.86,10.0,West,23.0,29.9,N/A,,Overcast,260,2013-01-15 23:53:00
5:53 PM,36.0,30.0,79,29.86,10.0,West,16.1,-,N/A,,Scattered Clouds,270,2013-01-16 00:53:00
6:53 PM,37.0,30.0,76,29.87,10.0,West,19.6,-,N/A,,Mostly Cloudy,260,2013-01-16 01:53:00
7:53 PM,37.0,30.0,76,29.88,10.0,West,16.1,-,N/A,,Overcast,260,2013-01-16 02:53:00
8:53 PM,37.9,30.0,73,29.88,10.0,West,16.1,-,N/A,,Overcast,260,2013-01-16 03:53:00
9:53 PM,37.0,30.0,76,29.87,10.0,WSW,17.3,23.0,N/A,,Overcast,250,2013-01-16 04:53:00
10:53 PM,37.0,30.0,76,29.88,10.0,West,19.6,26.5,N/A,,Overcast,260,2013-01-16 05:53:00
11:53 PM,37.0,30.0,76,29.87,10.0,West,17.3,24.2,N/A,,Overcast,260,2013-01-16 06:53:00